sensor_id;sensor_type;location;lat;lon;timestamp;P1;durP1;ratioP1;P2;durP2;ratioP2
61590;SDS011;57639;52.410;-1.966;2022-12-20T00:01:13;4.68;;;3.90;;
61590;SDS011;57639;52.410;-1.966;2022-12-20T00:04:21;3.80;;;3.30;;
61590;SDS011;57639;52.410;-1.966;2022-12-20T00:07:30;4.70;;;3.42;;
61590;SDS011;57639;52.410;-1.966;2022-12-20T00:10:36;4.00;;;3.60;;
61590;SDS011;57639;52.410;-1.966;2022-12-20T00:13:44;5.30;;;3.45;;
61590;SDS011;57639;52.410;-1.966;2022-12-20T00:16:51;4.00;;;3.03;;
61590;SDS011;57639;52.410;-1.966;2022-12-20T00:19:57;3.97;;;3.15;;
61590;SDS011;57639;52.410;-1.966;2022-12-20T00:23:03;4.15;;;2.97;;
61590;SDS011;57639;52.410;-1.966;2022-12-20T00:26:10;4.00;;;3.17;;
61590;SDS011;57639;52.410;-1.966;2022-12-20T00:29:17;3.78;;;2.70;;
61590;SDS011;57639;52.410;-1.966;2022-12-20T00:32:23;3.65;;;2.80;;
61590;SDS011;57639;52.410;-1.966;2022-12-20T00:35:29;3.50;;;2.45;;
61590;SDS011;57639;52.410;-1.966;2022-12-20T00:38:38;3.03;;;2.53;;
61590;SDS011;57639;52.410;-1.966;2022-12-20T00:41:45;2.88;;;2.17;;
61590;SDS011;57639;52.410;-1.966;2022-12-20T00:44:49;3.70;;;2.50;;
61590;SDS011;57639;52.410;-1.966;2022-12-20T00:47:55;2.85;;;2.42;;
61590;SDS011;57639;52.410;-1.966;2022-12-20T00:51:02;2.97;;;2.13;;
61590;SDS011;57639;52.410;-1.966;2022-12-20T00:54:10;2.83;;;2.03;;
61590;SDS011;57639;52.410;-1.966;2022-12-20T00:57:16;3.43;;;1.83;;
61590;SDS011;57639;52.410;-1.966;2022-12-20T01:00:21;2.78;;;1.90;;
61590;SDS011;57639;52.410;-1.966;2022-12-20T01:03:28;3.03;;;2.10;;
61590;SDS011;57639;52.410;-1.966;2022-12-20T01:06:32;1.80;;;1.60;;
61590;SDS011;57639;52.410;-1.966;2022-12-20T01:09:42;3.30;;;1.55;;
61590;SDS011;57639;52.410;-1.966;2022-12-20T01:12:49;2.60;;;1.50;;
61590;SDS011;57639;52.410;-1.966;2022-12-20T01:15:55;2.10;;;1.38;;
61590;SDS011;57639;52.410;-1.966;2022-12-20T01:19:01;2.83;;;1.52;;
61590;SDS011;57639;52.410;-1.966;2022-12-20T01:22:08;2.22;;;1.58;;
61590;SDS011;57639;52.410;-1.966;2022-12-20T01:25:15;1.80;;;1.50;;
61590;SDS011;57639;52.410;-1.966;2022-12-20T01:28:21;2.15;;;1.30;;
61590;SDS011;57639;52.410;-1.966;2022-12-20T01:31:28;1.40;;;1.13;;
61590;SDS011;57639;52.410;-1.966;2022-12-20T01:34:32;2.20;;;1.10;;
61590;SDS011;57639;52.410;-1.966;2022-12-20T01:37:39;1.15;;;0.90;;
61590;SDS011;57639;52.410;-1.966;2022-12-20T01:40:49;1.42;;;1.00;;
61590;SDS011;57639;52.410;-1.966;2022-12-20T01:43:56;1.37;;;1.10;;
61590;SDS011;57639;52.410;-1.966;2022-12-20T01:47:03;1.33;;;0.90;;
61590;SDS011;57639;52.410;-1.966;2022-12-20T01:50:07;1.15;;;0.88;;
61590;SDS011;57639;52.410;-1.966;2022-12-20T01:53:15;1.45;;;0.80;;
61590;SDS011;57639;52.410;-1.966;2022-12-20T01:59:36;0.98;;;0.60;;
61590;SDS011;57639;52.410;-1.966;2022-12-20T02:02:45;0.73;;;0.60;;
61590;SDS011;57639;52.410;-1.966;2022-12-20T02:05:53;1.58;;;0.60;;
61590;SDS011;57639;52.410;-1.966;2022-12-20T02:08:58;0.82;;;0.68;;
61590;SDS011;57639;52.410;-1.966;2022-12-20T02:12:10;0.70;;;0.60;;
61590;SDS011;57639;52.410;-1.966;2022-12-20T02:15:26;1.00;;;0.70;;
61590;SDS011;57639;52.410;-1.966;2022-12-20T02:18:37;0.50;;;0.50;;
61590;SDS011;57639;52.410;-1.966;2022-12-20T02:21:50;0.90;;;0.70;;
61590;SDS011;57639;52.410;-1.966;2022-12-20T02:25:09;0.40;;;0.40;;
61590;SDS011;57639;52.410;-1.966;2022-12-20T02:28:36;0.55;;;0.40;;
61590;SDS011;57639;52.410;-1.966;2022-12-20T02:32:00;0.85;;;0.50;;
61590;SDS011;57639;52.410;-1.966;2022-12-20T02:35:11;0.60;;;0.50;;
61590;SDS011;57639;52.410;-1.966;2022-12-20T02:38:24;0.80;;;0.60;;
61590;SDS011;57639;52.410;-1.966;2022-12-20T02:41:33;0.85;;;0.50;;
61590;SDS011;57639;52.410;-1.966;2022-12-20T02:44:43;0.38;;;0.30;;
61590;SDS011;57639;52.410;-1.966;2022-12-20T02:48:12;2.30;;;0.57;;
61590;SDS011;57639;52.410;-1.966;2022-12-20T02:51:18;1.05;;;0.50;;
61590;SDS011;57639;52.410;-1.966;2022-12-20T02:54:26;0.80;;;0.50;;
61590;SDS011;57639;52.410;-1.966;2022-12-20T02:57:36;0.60;;;0.40;;
61590;SDS011;57639;52.410;-1.966;2022-12-20T03:00:47;0.38;;;0.30;;
61590;SDS011;57639;52.410;-1.966;2022-12-20T03:03:58;0.70;;;0.30;;
61590;SDS011;57639;52.410;-1.966;2022-12-20T03:07:06;0.80;;;0.40;;
61590;SDS011;57639;52.410;-1.966;2022-12-20T03:10:11;0.50;;;0.30;;
61590;SDS011;57639;52.410;-1.966;2022-12-20T03:13:18;4.45;;;0.50;;
61590;SDS011;57639;52.410;-1.966;2022-12-20T03:16:24;5.32;;;1.05;;
61590;SDS011;57639;52.410;-1.966;2022-12-20T03:19:33;13.75;;;1.05;;
61590;SDS011;57639;52.410;-1.966;2022-12-20T03:22:39;15.85;;;1.20;;
61590;SDS011;57639;52.410;-1.966;2022-12-20T03:25:45;1.88;;;0.45;;
61590;SDS011;57639;52.410;-1.966;2022-12-20T03:28:54;6.15;;;0.93;;
61590;SDS011;57639;52.410;-1.966;2022-12-20T03:32:00;4.35;;;0.50;;
61590;SDS011;57639;52.410;-1.966;2022-12-20T03:35:09;1.98;;;0.57;;
61590;SDS011;57639;52.410;-1.966;2022-12-20T03:38:15;2.50;;;0.60;;
61590;SDS011;57639;52.410;-1.966;2022-12-20T03:41:22;2.20;;;0.47;;
61590;SDS011;57639;52.410;-1.966;2022-12-20T03:44:26;2.00;;;0.45;;
61590;SDS011;57639;52.410;-1.966;2022-12-20T03:47:32;3.25;;;0.30;;
61590;SDS011;57639;52.410;-1.966;2022-12-20T03:50:41;6.30;;;0.50;;
61590;SDS011;57639;52.410;-1.966;2022-12-20T03:53:45;2.67;;;0.50;;
61590;SDS011;57639;52.410;-1.966;2022-12-20T03:56:52;2.95;;;0.60;;
61590;SDS011;57639;52.410;-1.966;2022-12-20T03:59:58;1.77;;;0.40;;
61590;SDS011;57639;52.410;-1.966;2022-12-20T04:03:04;1.75;;;0.30;;
61590;SDS011;57639;52.410;-1.966;2022-12-20T04:06:10;1.90;;;0.40;;
61590;SDS011;57639;52.410;-1.966;2022-12-20T04:09:16;1.08;;;0.38;;
61590;SDS011;57639;52.410;-1.966;2022-12-20T04:12:20;3.45;;;0.40;;
61590;SDS011;57639;52.410;-1.966;2022-12-20T04:15:26;2.22;;;0.45;;
61590;SDS011;57639;52.410;-1.966;2022-12-20T04:18:32;0.65;;;0.35;;
61590;SDS011;57639;52.410;-1.966;2022-12-20T04:21:42;2.13;;;0.40;;
61590;SDS011;57639;52.410;-1.966;2022-12-20T04:24:48;1.63;;;0.38;;
61590;SDS011;57639;52.410;-1.966;2022-12-20T04:27:53;0.70;;;0.20;;
61590;SDS011;57639;52.410;-1.966;2022-12-20T04:30:59;2.65;;;0.40;;
61590;SDS011;57639;52.410;-1.966;2022-12-20T04:34:05;0.85;;;0.32;;
61590;SDS011;57639;52.410;-1.966;2022-12-20T04:37:14;1.00;;;0.30;;
61590;SDS011;57639;52.410;-1.966;2022-12-20T04:40:20;0.43;;;0.22;;
61590;SDS011;57639;52.410;-1.966;2022-12-20T04:43:26;1.08;;;0.30;;
61590;SDS011;57639;52.410;-1.966;2022-12-20T04:46:33;1.30;;;0.20;;
61590;SDS011;57639;52.410;-1.966;2022-12-20T04:49:39;1.75;;;0.38;;
61590;SDS011;57639;52.410;-1.966;2022-12-20T04:52:48;1.00;;;0.30;;
61590;SDS011;57639;52.410;-1.966;2022-12-20T04:56:08;1.02;;;0.20;;
61590;SDS011;57639;52.410;-1.966;2022-12-20T04:59:15;1.02;;;0.28;;
61590;SDS011;57639;52.410;-1.966;2022-12-20T05:02:19;1.02;;;0.43;;
61590;SDS011;57639;52.410;-1.966;2022-12-20T05:05:25;2.67;;;0.38;;
61590;SDS011;57639;52.410;-1.966;2022-12-20T05:08:35;1.88;;;0.20;;
61590;SDS011;57639;52.410;-1.966;2022-12-20T05:11:41;0.85;;;0.40;;
61590;SDS011;57639;52.410;-1.966;2022-12-20T05:14:48;0.77;;;0.20;;
61590;SDS011;57639;52.410;-1.966;2022-12-20T05:17:52;0.82;;;0.40;;
61590;SDS011;57639;52.410;-1.966;2022-12-20T05:21:00;1.23;;;0.20;;
61590;SDS011;57639;52.410;-1.966;2022-12-20T05:24:26;0.30;;;0.20;;
61590;SDS011;57639;52.410;-1.966;2022-12-20T05:27:47;0.30;;;0.20;;
61590;SDS011;57639;52.410;-1.966;2022-12-20T05:30:54;0.63;;;0.28;;
61590;SDS011;57639;52.410;-1.966;2022-12-20T05:34:00;1.23;;;0.20;;
61590;SDS011;57639;52.410;-1.966;2022-12-20T05:37:06;1.33;;;0.30;;
61590;SDS011;57639;52.410;-1.966;2022-12-20T05:40:15;0.60;;;0.30;;
61590;SDS011;57639;52.410;-1.966;2022-12-20T05:43:21;1.25;;;0.32;;
61590;SDS011;57639;52.410;-1.966;2022-12-20T05:46:27;0.35;;;0.20;;
61590;SDS011;57639;52.410;-1.966;2022-12-20T05:49:31;0.45;;;0.15;;
61590;SDS011;57639;52.410;-1.966;2022-12-20T05:52:38;1.05;;;0.20;;
61590;SDS011;57639;52.410;-1.966;2022-12-20T05:55:48;0.77;;;0.20;;
61590;SDS011;57639;52.410;-1.966;2022-12-20T05:58:55;0.38;;;0.20;;
61590;SDS011;57639;52.410;-1.966;2022-12-20T06:02:01;0.95;;;0.32;;
61590;SDS011;57639;52.410;-1.966;2022-12-20T06:05:05;0.80;;;0.30;;
61590;SDS011;57639;52.410;-1.966;2022-12-20T06:08:11;0.70;;;0.20;;
61590;SDS011;57639;52.410;-1.966;2022-12-20T06:11:21;0.50;;;0.20;;
61590;SDS011;57639;52.410;-1.966;2022-12-20T06:14:27;1.17;;;0.30;;
61590;SDS011;57639;52.410;-1.966;2022-12-20T06:17:31;0.63;;;0.20;;
61590;SDS011;57639;52.410;-1.966;2022-12-20T06:20:37;1.02;;;0.20;;
61590;SDS011;57639;52.410;-1.966;2022-12-20T06:23:43;1.25;;;0.50;;
61590;SDS011;57639;52.410;-1.966;2022-12-20T06:26:51;0.65;;;0.30;;
61590;SDS011;57639;52.410;-1.966;2022-12-20T06:29:57;0.77;;;0.30;;
61590;SDS011;57639;52.410;-1.966;2022-12-20T06:33:03;0.98;;;0.30;;
61590;SDS011;57639;52.410;-1.966;2022-12-20T06:36:09;0.63;;;0.32;;
61590;SDS011;57639;52.410;-1.966;2022-12-20T06:39:16;0.73;;;0.35;;
61590;SDS011;57639;52.410;-1.966;2022-12-20T06:42:24;1.13;;;0.30;;
61590;SDS011;57639;52.410;-1.966;2022-12-20T06:45:30;1.30;;;0.40;;
61590;SDS011;57639;52.410;-1.966;2022-12-20T06:48:36;1.17;;;0.30;;
61590;SDS011;57639;52.410;-1.966;2022-12-20T06:51:42;0.80;;;0.35;;
61590;SDS011;57639;52.410;-1.966;2022-12-20T06:54:48;0.65;;;0.30;;
61590;SDS011;57639;52.410;-1.966;2022-12-20T06:57:57;0.60;;;0.30;;
61590;SDS011;57639;52.410;-1.966;2022-12-20T07:01:03;1.35;;;0.47;;
61590;SDS011;57639;52.410;-1.966;2022-12-20T07:04:10;1.23;;;0.30;;
61590;SDS011;57639;52.410;-1.966;2022-12-20T07:07:15;0.93;;;0.30;;
61590;SDS011;57639;52.410;-1.966;2022-12-20T07:10:22;2.13;;;0.40;;
61590;SDS011;57639;52.410;-1.966;2022-12-20T07:13:30;1.98;;;0.57;;
61590;SDS011;57639;52.410;-1.966;2022-12-20T07:16:37;0.90;;;0.32;;
61590;SDS011;57639;52.410;-1.966;2022-12-20T07:19:44;0.93;;;0.30;;
61590;SDS011;57639;52.410;-1.966;2022-12-20T07:22:50;1.60;;;0.50;;
61590;SDS011;57639;52.410;-1.966;2022-12-20T07:25:56;0.95;;;0.40;;
61590;SDS011;57639;52.410;-1.966;2022-12-20T07:29:07;1.45;;;0.70;;
61590;SDS011;57639;52.410;-1.966;2022-12-20T07:32:13;2.10;;;0.50;;
61590;SDS011;57639;52.410;-1.966;2022-12-20T07:35:20;0.98;;;0.50;;
61590;SDS011;57639;52.410;-1.966;2022-12-20T07:38:26;0.90;;;0.35;;
61590;SDS011;57639;52.410;-1.966;2022-12-20T07:41:33;1.38;;;0.45;;
61590;SDS011;57639;52.410;-1.966;2022-12-20T07:44:42;1.17;;;0.45;;
61590;SDS011;57639;52.410;-1.966;2022-12-20T07:47:48;1.77;;;0.50;;
61590;SDS011;57639;52.410;-1.966;2022-12-20T07:50:55;0.85;;;0.40;;
61590;SDS011;57639;52.410;-1.966;2022-12-20T07:54:04;0.47;;;0.20;;
61590;SDS011;57639;52.410;-1.966;2022-12-20T07:57:14;0.57;;;0.32;;
61590;SDS011;57639;52.410;-1.966;2022-12-20T08:00:26;1.25;;;0.43;;
61590;SDS011;57639;52.410;-1.966;2022-12-20T08:03:35;0.50;;;0.40;;
61590;SDS011;57639;52.410;-1.966;2022-12-20T08:06:44;0.88;;;0.43;;
61590;SDS011;57639;52.410;-1.966;2022-12-20T08:09:50;1.65;;;0.40;;
61590;SDS011;57639;52.410;-1.966;2022-12-20T08:12:56;3.30;;;0.30;;
61590;SDS011;57639;52.410;-1.966;2022-12-20T08:16:06;1.23;;;0.50;;
61590;SDS011;57639;52.410;-1.966;2022-12-20T08:19:12;1.73;;;0.40;;
61590;SDS011;57639;52.410;-1.966;2022-12-20T08:22:18;2.58;;;0.63;;
61590;SDS011;57639;52.410;-1.966;2022-12-20T08:25:24;2.40;;;0.52;;
61590;SDS011;57639;52.410;-1.966;2022-12-20T08:28:30;2.28;;;0.50;;
61590;SDS011;57639;52.410;-1.966;2022-12-20T08:31:40;1.67;;;0.60;;
61590;SDS011;57639;52.410;-1.966;2022-12-20T08:34:46;4.28;;;0.50;;
61590;SDS011;57639;52.410;-1.966;2022-12-20T08:37:52;1.60;;;0.50;;
61590;SDS011;57639;52.410;-1.966;2022-12-20T08:41:00;3.00;;;0.60;;
61590;SDS011;57639;52.410;-1.966;2022-12-20T08:44:07;1.27;;;0.40;;
61590;SDS011;57639;52.410;-1.966;2022-12-20T08:47:16;1.58;;;0.40;;
61590;SDS011;57639;52.410;-1.966;2022-12-20T08:50:24;2.78;;;0.47;;
61590;SDS011;57639;52.410;-1.966;2022-12-20T08:53:31;2.30;;;0.50;;
61590;SDS011;57639;52.410;-1.966;2022-12-20T08:56:38;0.75;;;0.38;;
61590;SDS011;57639;52.410;-1.966;2022-12-20T08:59:44;2.25;;;0.40;;
61590;SDS011;57639;52.410;-1.966;2022-12-20T09:02:53;5.50;;;0.60;;
61590;SDS011;57639;52.410;-1.966;2022-12-20T09:05:59;3.25;;;0.70;;
61590;SDS011;57639;52.410;-1.966;2022-12-20T09:09:08;2.28;;;0.45;;
61590;SDS011;57639;52.410;-1.966;2022-12-20T09:12:14;7.22;;;0.55;;
61590;SDS011;57639;52.410;-1.966;2022-12-20T09:15:20;8.23;;;0.63;;
61590;SDS011;57639;52.410;-1.966;2022-12-20T09:18:35;3.30;;;0.65;;
61590;SDS011;57639;52.410;-1.966;2022-12-20T09:21:54;2.97;;;0.82;;
61590;SDS011;57639;52.410;-1.966;2022-12-20T09:25:06;4.68;;;0.73;;
61590;SDS011;57639;52.410;-1.966;2022-12-20T09:28:16;4.47;;;0.70;;
61590;SDS011;57639;52.410;-1.966;2022-12-20T09:31:26;4.95;;;0.70;;
61590;SDS011;57639;52.410;-1.966;2022-12-20T09:34:36;2.28;;;0.60;;
61590;SDS011;57639;52.410;-1.966;2022-12-20T09:37:42;5.18;;;0.73;;
61590;SDS011;57639;52.410;-1.966;2022-12-20T09:40:49;4.30;;;0.90;;
61590;SDS011;57639;52.410;-1.966;2022-12-20T09:43:57;3.67;;;0.73;;
61590;SDS011;57639;52.410;-1.966;2022-12-20T09:47:09;4.30;;;0.88;;
61590;SDS011;57639;52.410;-1.966;2022-12-20T09:50:25;3.05;;;1.00;;
61590;SDS011;57639;52.410;-1.966;2022-12-20T09:53:43;5.85;;;0.90;;
61590;SDS011;57639;52.410;-1.966;2022-12-20T09:57:02;5.45;;;0.90;;
61590;SDS011;57639;52.410;-1.966;2022-12-20T10:00:15;3.58;;;0.80;;
61590;SDS011;57639;52.410;-1.966;2022-12-20T10:03:24;3.95;;;1.45;;
61590;SDS011;57639;52.410;-1.966;2022-12-20T10:06:39;3.88;;;1.00;;
61590;SDS011;57639;52.410;-1.966;2022-12-20T10:10:02;6.07;;;0.80;;
61590;SDS011;57639;52.410;-1.966;2022-12-20T10:13:22;5.20;;;0.95;;
61590;SDS011;57639;52.410;-1.966;2022-12-20T10:16:38;3.30;;;0.77;;
61590;SDS011;57639;52.410;-1.966;2022-12-20T10:19:53;3.20;;;0.80;;
61590;SDS011;57639;52.410;-1.966;2022-12-20T10:23:12;5.60;;;1.05;;
61590;SDS011;57639;52.410;-1.966;2022-12-20T10:26:24;2.63;;;0.85;;
61590;SDS011;57639;52.410;-1.966;2022-12-20T10:29:30;2.72;;;1.15;;
61590;SDS011;57639;52.410;-1.966;2022-12-20T10:32:36;4.18;;;0.90;;
61590;SDS011;57639;52.410;-1.966;2022-12-20T10:35:41;7.82;;;1.15;;
61590;SDS011;57639;52.410;-1.966;2022-12-20T10:38:51;3.85;;;1.02;;
61590;SDS011;57639;52.410;-1.966;2022-12-20T10:41:58;5.32;;;1.02;;
61590;SDS011;57639;52.410;-1.966;2022-12-20T10:45:04;5.68;;;1.50;;
61590;SDS011;57639;52.410;-1.966;2022-12-20T10:48:31;3.85;;;0.90;;
61590;SDS011;57639;52.410;-1.966;2022-12-20T10:51:38;3.00;;;0.77;;
61590;SDS011;57639;52.410;-1.966;2022-12-20T10:54:59;4.25;;;1.10;;
61590;SDS011;57639;52.410;-1.966;2022-12-20T10:58:05;2.88;;;0.68;;
61590;SDS011;57639;52.410;-1.966;2022-12-20T11:01:27;5.40;;;0.80;;
61590;SDS011;57639;52.410;-1.966;2022-12-20T11:04:35;5.28;;;1.10;;
61590;SDS011;57639;52.410;-1.966;2022-12-20T11:07:50;3.40;;;0.95;;
61590;SDS011;57639;52.410;-1.966;2022-12-20T11:11:14;2.67;;;0.77;;
61590;SDS011;57639;52.410;-1.966;2022-12-20T11:14:23;2.58;;;0.73;;
61590;SDS011;57639;52.410;-1.966;2022-12-20T11:17:31;3.67;;;0.80;;
61590;SDS011;57639;52.410;-1.966;2022-12-20T11:20:42;4.15;;;1.10;;
61590;SDS011;57639;52.410;-1.966;2022-12-20T11:23:57;3.70;;;1.10;;
61590;SDS011;57639;52.410;-1.966;2022-12-20T11:27:17;3.83;;;1.25;;
61590;SDS011;57639;52.410;-1.966;2022-12-20T11:30:31;2.22;;;0.82;;
61590;SDS011;57639;52.410;-1.966;2022-12-20T11:33:50;4.28;;;1.10;;
61590;SDS011;57639;52.410;-1.966;2022-12-20T11:37:16;2.13;;;0.82;;
61590;SDS011;57639;52.410;-1.966;2022-12-20T11:40:28;3.10;;;1.08;;
61590;SDS011;57639;52.410;-1.966;2022-12-20T11:43:54;3.72;;;1.08;;
61590;SDS011;57639;52.410;-1.966;2022-12-20T11:47:18;4.63;;;1.10;;
61590;SDS011;57639;52.410;-1.966;2022-12-20T11:53:55;3.45;;;1.10;;
61590;SDS011;57639;52.410;-1.966;2022-12-20T11:57:06;3.03;;;1.10;;
61590;SDS011;57639;52.410;-1.966;2022-12-20T12:00:23;2.30;;;0.90;;
61590;SDS011;57639;52.410;-1.966;2022-12-20T12:03:31;2.33;;;0.80;;
61590;SDS011;57639;52.410;-1.966;2022-12-20T12:06:40;3.58;;;0.98;;
61590;SDS011;57639;52.410;-1.966;2022-12-20T12:09:54;4.40;;;1.30;;
61590;SDS011;57639;52.410;-1.966;2022-12-20T12:13:05;3.08;;;1.00;;
61590;SDS011;57639;52.410;-1.966;2022-12-20T12:16:23;4.63;;;1.10;;
61590;SDS011;57639;52.410;-1.966;2022-12-20T12:19:29;4.00;;;1.05;;
61590;SDS011;57639;52.410;-1.966;2022-12-20T12:22:36;4.38;;;1.42;;
61590;SDS011;57639;52.410;-1.966;2022-12-20T12:25:44;3.85;;;1.20;;
61590;SDS011;57639;52.410;-1.966;2022-12-20T12:28:52;5.30;;;1.35;;
61590;SDS011;57639;52.410;-1.966;2022-12-20T12:32:03;4.47;;;1.40;;
61590;SDS011;57639;52.410;-1.966;2022-12-20T12:35:18;5.80;;;1.38;;
61590;SDS011;57639;52.410;-1.966;2022-12-20T12:39:02;2.80;;;1.20;;
61590;SDS011;57639;52.410;-1.966;2022-12-20T12:46:01;4.10;;;1.20;;
61590;SDS011;57639;52.410;-1.966;2022-12-20T12:49:17;3.90;;;1.30;;
61590;SDS011;57639;52.410;-1.966;2022-12-20T12:52:27;3.88;;;1.20;;
61590;SDS011;57639;52.410;-1.966;2022-12-20T12:55:42;3.55;;;1.17;;
61590;SDS011;57639;52.410;-1.966;2022-12-20T13:09:44;3.90;;;0.93;;
61590;SDS011;57639;52.410;-1.966;2022-12-20T13:13:11;2.73;;;0.97;;
61590;SDS011;57639;52.410;-1.966;2022-12-20T13:16:28;3.88;;;1.10;;
61590;SDS011;57639;52.410;-1.966;2022-12-20T13:19:35;3.97;;;1.17;;
61590;SDS011;57639;52.410;-1.966;2022-12-20T13:30:00;3.80;;;1.10;;
61590;SDS011;57639;52.410;-1.966;2022-12-20T13:33:37;4.50;;;1.20;;
61590;SDS011;57639;52.410;-1.966;2022-12-20T13:36:44;6.50;;;1.20;;
61590;SDS011;57639;52.410;-1.966;2022-12-20T13:39:50;3.85;;;1.00;;
61590;SDS011;57639;52.410;-1.966;2022-12-20T13:43:01;4.15;;;1.45;;
61590;SDS011;57639;52.410;-1.966;2022-12-20T13:46:12;4.20;;;1.55;;
61590;SDS011;57639;52.410;-1.966;2022-12-20T13:49:25;5.47;;;1.27;;
61590;SDS011;57639;52.410;-1.966;2022-12-20T13:52:36;5.10;;;1.20;;
61590;SDS011;57639;52.410;-1.966;2022-12-20T13:55:46;5.45;;;1.20;;
61590;SDS011;57639;52.410;-1.966;2022-12-20T13:58:55;9.02;;;1.90;;
61590;SDS011;57639;52.410;-1.966;2022-12-20T14:02:03;5.28;;;1.10;;
61590;SDS011;57639;52.410;-1.966;2022-12-20T14:05:20;5.63;;;1.15;;
61590;SDS011;57639;52.410;-1.966;2022-12-20T14:08:30;5.80;;;1.38;;
61590;SDS011;57639;52.410;-1.966;2022-12-20T14:11:45;5.03;;;1.30;;
61590;SDS011;57639;52.410;-1.966;2022-12-20T14:14:54;7.60;;;1.48;;
61590;SDS011;57639;52.410;-1.966;2022-12-20T14:18:04;4.38;;;1.10;;
61590;SDS011;57639;52.410;-1.966;2022-12-20T14:21:11;6.95;;;1.33;;
61590;SDS011;57639;52.410;-1.966;2022-12-20T14:24:18;6.90;;;1.45;;
61590;SDS011;57639;52.410;-1.966;2022-12-20T14:27:27;7.97;;;1.40;;
61590;SDS011;57639;52.410;-1.966;2022-12-20T14:30:42;3.00;;;1.20;;
61590;SDS011;57639;52.410;-1.966;2022-12-20T14:33:49;6.55;;;1.55;;
61590;SDS011;57639;52.410;-1.966;2022-12-20T14:40:30;5.88;;;1.30;;
61590;SDS011;57639;52.410;-1.966;2022-12-20T14:43:53;6.68;;;1.30;;
61590;SDS011;57639;52.410;-1.966;2022-12-20T14:47:03;6.03;;;1.55;;
61590;SDS011;57639;52.410;-1.966;2022-12-20T14:50:30;4.90;;;1.53;;
61590;SDS011;57639;52.410;-1.966;2022-12-20T14:53:44;4.47;;;1.52;;
61590;SDS011;57639;52.410;-1.966;2022-12-20T14:56:52;3.88;;;1.30;;
61590;SDS011;57639;52.410;-1.966;2022-12-20T15:00:00;4.75;;;1.33;;
61590;SDS011;57639;52.410;-1.966;2022-12-20T15:03:17;4.45;;;1.40;;
61590;SDS011;57639;52.410;-1.966;2022-12-20T15:06:31;3.67;;;1.30;;
61590;SDS011;57639;52.410;-1.966;2022-12-20T15:09:39;3.88;;;1.40;;
61590;SDS011;57639;52.410;-1.966;2022-12-20T15:12:45;4.55;;;1.20;;
61590;SDS011;57639;52.410;-1.966;2022-12-20T15:15:51;5.22;;;1.50;;
61590;SDS011;57639;52.410;-1.966;2022-12-20T15:19:01;3.05;;;1.40;;
61590;SDS011;57639;52.410;-1.966;2022-12-20T15:22:08;5.47;;;1.43;;
61590;SDS011;57639;52.410;-1.966;2022-12-20T15:25:18;6.07;;;1.45;;
61590;SDS011;57639;52.410;-1.966;2022-12-20T15:28:25;3.70;;;1.30;;
61590;SDS011;57639;52.410;-1.966;2022-12-20T15:31:31;6.15;;;1.42;;
61590;SDS011;57639;52.410;-1.966;2022-12-20T15:34:42;2.95;;;1.42;;
61590;SDS011;57639;52.410;-1.966;2022-12-20T15:37:46;6.32;;;1.52;;
61590;SDS011;57639;52.410;-1.966;2022-12-20T15:40:52;3.03;;;1.20;;
61590;SDS011;57639;52.410;-1.966;2022-12-20T15:44:02;4.63;;;1.40;;
61590;SDS011;57639;52.410;-1.966;2022-12-20T15:50:19;3.90;;;1.23;;
61590;SDS011;57639;52.410;-1.966;2022-12-20T15:53:27;5.30;;;1.48;;
61590;SDS011;57639;52.410;-1.966;2022-12-20T15:56:35;5.03;;;1.55;;
61590;SDS011;57639;52.410;-1.966;2022-12-20T15:59:42;4.68;;;1.60;;
61590;SDS011;57639;52.410;-1.966;2022-12-20T16:02:48;3.85;;;1.40;;
61590;SDS011;57639;52.410;-1.966;2022-12-20T16:05:57;3.10;;;1.15;;
61590;SDS011;57639;52.410;-1.966;2022-12-20T16:12:12;4.97;;;1.50;;
61590;SDS011;57639;52.410;-1.966;2022-12-20T16:18:27;4.43;;;1.45;;
61590;SDS011;57639;52.410;-1.966;2022-12-20T16:21:39;3.38;;;1.45;;
61590;SDS011;57639;52.410;-1.966;2022-12-20T16:24:48;4.90;;;1.52;;
61590;SDS011;57639;52.410;-1.966;2022-12-20T16:27:54;4.05;;;1.45;;
61590;SDS011;57639;52.410;-1.966;2022-12-20T16:31:08;5.05;;;1.40;;
61590;SDS011;57639;52.410;-1.966;2022-12-20T16:34:15;6.95;;;1.55;;
61590;SDS011;57639;52.410;-1.966;2022-12-20T16:37:25;4.07;;;1.50;;
61590;SDS011;57639;52.410;-1.966;2022-12-20T16:40:31;3.28;;;1.38;;
61590;SDS011;57639;52.410;-1.966;2022-12-20T16:43:37;5.60;;;1.67;;
61590;SDS011;57639;52.410;-1.966;2022-12-20T16:46:43;5.03;;;1.45;;
61590;SDS011;57639;52.410;-1.966;2022-12-20T16:49:49;3.60;;;1.27;;
61590;SDS011;57639;52.410;-1.966;2022-12-20T16:52:58;3.97;;;1.48;;
61590;SDS011;57639;52.410;-1.966;2022-12-20T16:56:04;3.63;;;1.40;;
61590;SDS011;57639;52.410;-1.966;2022-12-20T16:59:18;4.57;;;1.67;;
61590;SDS011;57639;52.410;-1.966;2022-12-20T17:02:26;4.13;;;1.38;;
61590;SDS011;57639;52.410;-1.966;2022-12-20T17:05:34;4.30;;;1.60;;
61590;SDS011;57639;52.410;-1.966;2022-12-20T17:08:44;4.25;;;1.50;;
61590;SDS011;57639;52.410;-1.966;2022-12-20T17:11:51;3.30;;;1.50;;
61590;SDS011;57639;52.410;-1.966;2022-12-20T17:14:57;5.95;;;1.33;;
61590;SDS011;57639;52.410;-1.966;2022-12-20T17:18:03;5.20;;;1.50;;
61590;SDS011;57639;52.410;-1.966;2022-12-20T17:24:41;6.63;;;1.50;;
61590;SDS011;57639;52.410;-1.966;2022-12-20T17:27:47;4.50;;;1.38;;
61590;SDS011;57639;52.410;-1.966;2022-12-20T17:30:53;4.50;;;1.40;;
61590;SDS011;57639;52.410;-1.966;2022-12-20T17:34:00;6.53;;;1.48;;
61590;SDS011;57639;52.410;-1.966;2022-12-20T17:37:07;6.60;;;1.67;;
61590;SDS011;57639;52.410;-1.966;2022-12-20T17:40:16;7.82;;;2.03;;
61590;SDS011;57639;52.410;-1.966;2022-12-20T17:43:22;11.10;;;4.27;;
61590;SDS011;57639;52.410;-1.966;2022-12-20T17:46:28;44.15;;;19.25;;
61590;SDS011;57639;52.410;-1.966;2022-12-20T17:49:34;62.10;;;34.03;;
61590;SDS011;57639;52.410;-1.966;2022-12-20T17:52:40;62.28;;;33.47;;
61590;SDS011;57639;52.410;-1.966;2022-12-20T17:55:49;62.92;;;35.85;;
61590;SDS011;57639;52.410;-1.966;2022-12-20T17:58:56;66.25;;;35.75;;
61590;SDS011;57639;52.410;-1.966;2022-12-20T18:02:04;59.67;;;33.97;;
61590;SDS011;57639;52.410;-1.966;2022-12-20T18:05:23;66.18;;;35.65;;
61590;SDS011;57639;52.410;-1.966;2022-12-20T18:08:33;60.13;;;32.27;;
61590;SDS011;57639;52.410;-1.966;2022-12-20T18:11:42;60.00;;;29.55;;
61590;SDS011;57639;52.410;-1.966;2022-12-20T18:14:49;50.05;;;25.60;;
61590;SDS011;57639;52.410;-1.966;2022-12-20T18:17:55;47.97;;;25.90;;
61590;SDS011;57639;52.410;-1.966;2022-12-20T18:21:01;43.20;;;21.90;;
61590;SDS011;57639;52.410;-1.966;2022-12-20T18:24:09;39.35;;;20.90;;
61590;SDS011;57639;52.410;-1.966;2022-12-20T18:27:19;33.95;;;19.20;;
61590;SDS011;57639;52.410;-1.966;2022-12-20T18:30:25;36.95;;;18.63;;
61590;SDS011;57639;52.410;-1.966;2022-12-20T18:33:31;31.23;;;17.20;;
61590;SDS011;57639;52.410;-1.966;2022-12-20T18:36:38;32.78;;;16.42;;
61590;SDS011;57639;52.410;-1.966;2022-12-20T18:39:45;30.02;;;15.43;;
61590;SDS011;57639;52.410;-1.966;2022-12-20T18:42:54;25.55;;;15.13;;
61590;SDS011;57639;52.410;-1.966;2022-12-20T18:46:02;29.43;;;14.03;;
61590;SDS011;57639;52.410;-1.966;2022-12-20T18:49:08;30.73;;;13.82;;
61590;SDS011;57639;52.410;-1.966;2022-12-20T18:52:14;24.55;;;12.98;;
61590;SDS011;57639;52.410;-1.966;2022-12-20T18:55:21;23.88;;;12.77;;
61590;SDS011;57639;52.410;-1.966;2022-12-20T18:58:30;20.85;;;11.27;;
61590;SDS011;57639;52.410;-1.966;2022-12-20T19:01:36;23.35;;;11.48;;
61590;SDS011;57639;52.410;-1.966;2022-12-20T19:04:43;19.80;;;10.02;;
61590;SDS011;57639;52.410;-1.966;2022-12-20T19:07:50;20.65;;;9.98;;
61590;SDS011;57639;52.410;-1.966;2022-12-20T19:10:57;16.38;;;9.20;;
61590;SDS011;57639;52.410;-1.966;2022-12-20T19:14:08;17.63;;;8.60;;
61590;SDS011;57639;52.410;-1.966;2022-12-20T19:20:20;14.70;;;7.93;;
61590;SDS011;57639;52.410;-1.966;2022-12-20T19:23:26;17.20;;;7.70;;
61590;SDS011;57639;52.410;-1.966;2022-12-20T19:26:33;15.13;;;7.82;;
61590;SDS011;57639;52.410;-1.966;2022-12-20T19:29:43;14.82;;;7.90;;